INFORMACIÓN METAR y TAF
METAR FOR GCGM
ADDS - METARS form results

(0341 UTC 22 July 2019)
Data provider http://aviationweather.gov/metar/data/
 
METAR text: GCGM 220330Z AUTO 26003KT 230V290 9999 NCD 20/17 Q1019 RMK R09/26004KT ARP/27005KT
Conditions at: GCGM (LA GOMERA ARPT , ES) observed 0330 UTC 22 July 2019
Temperature: 20.0°C (68°F)
Dewpoint: 17.0°C (63°F) [RH = 83%]
Pressure (altimeter): 30.09 inches Hg (1019.0 mb)
Winds: from the W (260 degrees) at 3 MPH (3 knots; 1.5 m/s)
Visibility: 6 or more miles (10+ km)
Ceiling: at least 12,000 feet AGL
Clouds: sky clear below 12,000 feet AGL
Weather: no significant weather observed at this time

METAR text: GCGM 220300Z AUTO 27004KT 9999 NCD 20/17 Q1019 RMK R09/27004KT 230V300 ARP/28005KT
Conditions at: GCGM (LA GOMERA ARPT , ES) observed 0300 UTC 22 July 2019
Temperature: 20.0°C (68°F)
Dewpoint: 17.0°C (63°F) [RH = 83%]
Pressure (altimeter): 30.09 inches Hg (1019.0 mb)
Winds: from the W (270 degrees) at 5 MPH (4 knots; 2.1 m/s)
Visibility: 6 or more miles (10+ km)
Ceiling: at least 12,000 feet AGL
Clouds: sky clear below 12,000 feet AGL
Weather: no significant weather observed at this time

Forecast for: GCGM (LA GOMERA ARPT , ES)
Text: TAF GCGM 220200Z 2203/2303 VRB03KT 9999 FEW015 TX27/2214Z TN19/2205Z
Forecast period: 0300 UTC 22 July 2019 to 0300 UTC 23 July 2019
Forecast type: FROM: standard forecast or significant change
Winds: variable direction winds at 3 MPH (3 knots; 1.5 m/s)
Visibility: 6 or more miles 10+ km)
Ceiling: at least 12,000 feet AGL
Clouds: few clouds at 1500 feet AGL
Weather: no significant weather forecast for this period

 MAPA DE AEROPUERTO

 INFORMACIÓN DE PISTA
Pista 09 Longitud 4921 ft Ancho 98 ft
Elevación 716 ft Umbral desplazado 0 ft Rumbo de pista 81
Pista 27 Longitud 4921 ft Ancho 98 ft
Elevación 712 ft Umbral desplazado 0 ft Rumbo de pista 261

 FRECUANCIAS DEL AEROPUERTO
Tipo GND Nombre GND Frecuencia 121.7 MHZ
Tipo TWR Nombre TWR Frecuencia 118.4 MHZ

 RADIO AYUDAS DEL AEROPUERTO
Tipo VOR-DME Nombre La Gomera Frecuencia 116000 KHZ



Powered by Virtual Airlines Manager [v2.6.2]